sensor_id;sensor_type;location;lat;lon;timestamp;pressure;altitude;pressure_sealevel;temperature;humidity
42727;BME280;28372;56.832;60.658;2022-11-15T00:01:17;95550.22;;;-2.81;100.00
42727;BME280;28372;56.832;60.658;2022-11-15T00:04:04;95550.44;;;-2.86;100.00
42727;BME280;28372;56.832;60.658;2022-11-15T00:06:49;95552.44;;;-2.83;100.00
42727;BME280;28372;56.832;60.658;2022-11-15T00:09:35;95538.09;;;-2.82;100.00
42727;BME280;28372;56.832;60.658;2022-11-15T00:12:27;95553.97;;;-2.82;100.00
42727;BME280;28372;56.832;60.658;2022-11-15T00:15:14;95557.81;;;-2.80;100.00
42727;BME280;28372;56.832;60.658;2022-11-15T00:18:00;95548.31;;;-2.81;100.00
42727;BME280;28372;56.832;60.658;2022-11-15T00:20:46;95554.28;;;-2.84;100.00
42727;BME280;28372;56.832;60.658;2022-11-15T00:23:33;95559.84;;;-2.89;100.00
42727;BME280;28372;56.832;60.658;2022-11-15T00:26:19;95562.50;;;-2.89;100.00
42727;BME280;28372;56.832;60.658;2022-11-15T00:29:05;95558.38;;;-2.86;100.00
42727;BME280;28372;56.832;60.658;2022-11-15T00:31:52;95558.03;;;-2.85;100.00
42727;BME280;28372;56.832;60.658;2022-11-15T00:34:38;95567.53;;;-2.84;100.00
42727;BME280;28372;56.832;60.658;2022-11-15T00:37:24;95582.28;;;-2.83;100.00
42727;BME280;28372;56.832;60.658;2022-11-15T00:40:11;95584.06;;;-2.87;100.00
42727;BME280;28372;56.832;60.658;2022-11-15T00:42:58;95587.13;;;-2.85;100.00
42727;BME280;28372;56.832;60.658;2022-11-15T00:45:44;95582.13;;;-2.90;100.00
42727;BME280;28372;56.832;60.658;2022-11-15T00:48:30;95581.25;;;-2.94;100.00
42727;BME280;28372;56.832;60.658;2022-11-15T00:51:17;95585.69;;;-2.98;100.00
42727;BME280;28372;56.832;60.658;2022-11-15T00:54:03;95585.75;;;-2.95;100.00
42727;BME280;28372;56.832;60.658;2022-11-15T00:56:48;95588.41;;;-2.95;100.00
42727;BME280;28372;56.832;60.658;2022-11-15T00:59:35;95578.16;;;-2.96;100.00
42727;BME280;28372;56.832;60.658;2022-11-15T01:02:21;95579.94;;;-3.00;100.00
42727;BME280;28372;56.832;60.658;2022-11-15T01:05:07;95586.78;;;-2.99;100.00
42727;BME280;28372;56.832;60.658;2022-11-15T01:07:54;95583.72;;;-3.01;100.00
42727;BME280;28372;56.832;60.658;2022-11-15T01:10:41;95595.16;;;-2.97;100.00
42727;BME280;28372;56.832;60.658;2022-11-15T01:13:32;95588.31;;;-2.98;100.00
42727;BME280;28372;56.832;60.658;2022-11-15T01:16:19;95589.53;;;-2.96;100.00
42727;BME280;28372;56.832;60.658;2022-11-15T01:19:05;95589.53;;;-2.96;100.00
42727;BME280;28372;56.832;60.658;2022-11-15T01:21:51;95590.81;;;-2.89;100.00
42727;BME280;28372;56.832;60.658;2022-11-15T01:24:37;95593.69;;;-2.95;100.00
42727;BME280;28372;56.832;60.658;2022-11-15T01:27:23;95592.69;;;-2.90;100.00
42727;BME280;28372;56.832;60.658;2022-11-15T01:30:09;95599.28;;;-2.84;100.00
42727;BME280;28372;56.832;60.658;2022-11-15T01:32:55;95598.94;;;-2.82;100.00
42727;BME280;28372;56.832;60.658;2022-11-15T01:35:41;95599.28;;;-2.84;100.00
42727;BME280;28372;56.832;60.658;2022-11-15T01:38:28;95605.56;;;-2.88;100.00
42727;BME280;28372;56.832;60.658;2022-11-15T01:41:19;95605.25;;;-2.87;100.00
42727;BME280;28372;56.832;60.658;2022-11-15T01:47:28;95613.94;;;-2.86;100.00
42727;BME280;28372;56.832;60.658;2022-11-15T01:50:18;95606.78;;;-2.86;100.00
42727;BME280;28372;56.832;60.658;2022-11-15T01:53:06;95615.81;;;-2.87;100.00
42727;BME280;28372;56.832;60.658;2022-11-15T01:55:53;95615.81;;;-2.87;100.00
42727;BME280;28372;56.832;60.658;2022-11-15T01:58:41;95619.00;;;-2.81;100.00
42727;BME280;28372;56.832;60.658;2022-11-15T02:01:28;95615.25;;;-2.80;100.00
42727;BME280;28372;56.832;60.658;2022-11-15T02:04:20;95624.69;;;-2.79;100.00
42727;BME280;28372;56.832;60.658;2022-11-15T02:07:11;95631.47;;;-2.82;100.00
42727;BME280;28372;56.832;60.658;2022-11-15T02:10:08;95624.69;;;-2.79;100.00
42727;BME280;28372;56.832;60.658;2022-11-15T02:12:55;95632.31;;;-2.78;100.00
42727;BME280;28372;56.832;60.658;2022-11-15T02:15:59;95631.97;;;-2.76;100.00
42727;BME280;28372;56.832;60.658;2022-11-15T02:19:34;95622.84;;;-2.79;100.00
42727;BME280;28372;56.832;60.658;2022-11-15T02:28:57;95644.03;;;-2.63;100.00
42727;BME280;28372;56.832;60.658;2022-11-15T02:32:40;95640.91;;;-2.52;100.00
42727;BME280;28372;56.832;60.658;2022-11-15T02:38:22;95643.75;;;-2.45;100.00
42727;BME280;28372;56.832;60.658;2022-11-15T02:41:28;95656.38;;;-2.38;100.00
42727;BME280;28372;56.832;60.658;2022-11-15T02:44:32;95655.19;;;-2.41;100.00
42727;BME280;28372;56.832;60.658;2022-11-15T02:47:20;95655.44;;;-2.46;100.00
42727;BME280;28372;56.832;60.658;2022-11-15T02:50:10;95657.41;;;-2.43;100.00
42727;BME280;28372;56.832;60.658;2022-11-15T02:52:58;95664.47;;;-2.47;100.00
42727;BME280;28372;56.832;60.658;2022-11-15T02:55:46;95656.34;;;-2.54;100.00
42727;BME280;28372;56.832;60.658;2022-11-15T03:04:57;95679.25;;;-2.46;100.00
42727;BME280;28372;56.832;60.658;2022-11-15T03:11:08;95691.28;;;-2.49;100.00
42727;BME280;28372;56.832;60.658;2022-11-15T03:17:10;95697.88;;;-2.43;100.00
42727;BME280;28372;56.832;60.658;2022-11-15T03:20:00;95701.38;;;-2.38;100.00
42727;BME280;28372;56.832;60.658;2022-11-15T03:22:47;95693.53;;;-2.35;100.00
42727;BME280;28372;56.832;60.658;2022-11-15T03:25:38;95705.97;;;-2.51;100.00
42727;BME280;28372;56.832;60.658;2022-11-15T03:28:57;95706.66;;;-2.38;100.00
42727;BME280;28372;56.832;60.658;2022-11-15T03:31:50;95704.03;;;-2.38;100.00
42727;BME280;28372;56.832;60.658;2022-11-15T03:34:47;95707.69;;;-2.43;100.00
42727;BME280;28372;56.832;60.658;2022-11-15T03:40:42;95715.16;;;-2.33;100.00
42727;BME280;28372;56.832;60.658;2022-11-15T03:46:31;95720.31;;;-2.24;100.00
42727;BME280;28372;56.832;60.658;2022-11-15T03:49:32;95721.84;;;-2.23;100.00
42727;BME280;28372;56.832;60.658;2022-11-15T03:52:21;95727.81;;;-2.26;100.00
42727;BME280;28372;56.832;60.658;2022-11-15T03:55:10;95735.84;;;-2.22;100.00
42727;BME280;28372;56.832;60.658;2022-11-15T03:57:59;95733.78;;;-2.29;100.00
42727;BME280;28372;56.832;60.658;2022-11-15T04:00:45;95734.88;;;-2.30;100.00
42727;BME280;28372;56.832;60.658;2022-11-15T04:03:31;95733.09;;;-2.26;100.00
42727;BME280;28372;56.832;60.658;2022-11-15T04:06:17;95742.78;;;-2.18;100.00
42727;BME280;28372;56.832;60.658;2022-11-15T04:09:04;95740.13;;;-2.18;100.00
42727;BME280;28372;56.832;60.658;2022-11-15T04:11:50;95748.94;;;-2.14;100.00
42727;BME280;28372;56.832;60.658;2022-11-15T04:14:35;95746.97;;;-2.17;100.00
42727;BME280;28372;56.832;60.658;2022-11-15T04:17:21;95753.13;;;-2.13;100.00
42727;BME280;28372;56.832;60.658;2022-11-15T04:20:10;95764.94;;;-2.10;100.00
42727;BME280;28372;56.832;60.658;2022-11-15T04:23:20;95761.59;;;-2.07;100.00
42727;BME280;28372;56.832;60.658;2022-11-15T04:26:25;95761.59;;;-2.07;100.00
42727;BME280;28372;56.832;60.658;2022-11-15T04:29:11;95768.09;;;-2.04;100.00
42727;BME280;28372;56.832;60.658;2022-11-15T04:32:30;95771.69;;;-1.97;100.00
42727;BME280;28372;56.832;60.658;2022-11-15T04:35:16;95775.22;;;-1.93;100.00
42727;BME280;28372;56.832;60.658;2022-11-15T04:38:03;95773.06;;;-1.87;100.00
42727;BME280;28372;56.832;60.658;2022-11-15T04:40:50;95774.19;;;-1.88;100.00
42727;BME280;28372;56.832;60.658;2022-11-15T04:43:36;95774.97;;;-1.87;100.00
42727;BME280;28372;56.832;60.658;2022-11-15T04:46:22;95774.81;;;-1.79;100.00
42727;BME280;28372;56.832;60.658;2022-11-15T04:49:09;95787.97;;;-1.82;100.00
42727;BME280;28372;56.832;60.658;2022-11-15T04:51:55;95782.34;;;-1.81;100.00
42727;BME280;28372;56.832;60.658;2022-11-15T04:54:41;95785.31;;;-1.82;100.00
42727;BME280;28372;56.832;60.658;2022-11-15T04:57:30;95790.28;;;-1.81;100.00
42727;BME280;28372;56.832;60.658;2022-11-15T05:00:16;95789.84;;;-1.83;100.00
42727;BME280;28372;56.832;60.658;2022-11-15T05:03:02;95794.38;;;-1.83;100.00
42727;BME280;28372;56.832;60.658;2022-11-15T05:06:07;95800.53;;;-1.79;100.00
42727;BME280;28372;56.832;60.658;2022-11-15T05:08:53;95792.16;;;-1.81;100.00
42727;BME280;28372;56.832;60.658;2022-11-15T05:11:39;95800.38;;;-1.70;100.00
42727;BME280;28372;56.832;60.658;2022-11-15T05:14:26;95801.25;;;-1.66;100.00
42727;BME280;28372;56.832;60.658;2022-11-15T05:17:12;95794.91;;;-1.62;100.00
42727;BME280;28372;56.832;60.658;2022-11-15T05:19:58;95806.81;;;-1.56;100.00
42727;BME280;28372;56.832;60.658;2022-11-15T05:22:44;95807.69;;;-1.51;100.00
42727;BME280;28372;56.832;60.658;2022-11-15T05:25:30;95810.41;;;-1.48;100.00
42727;BME280;28372;56.832;60.658;2022-11-15T05:28:16;95810.91;;;-1.42;100.00
42727;BME280;28372;56.832;60.658;2022-11-15T05:31:07;95820.34;;;-1.29;100.00
42727;BME280;28372;56.832;60.658;2022-11-15T05:33:55;95823.16;;;-1.22;100.00
42727;BME280;28372;56.832;60.658;2022-11-15T05:36:42;95834.13;;;-1.23;100.00
42727;BME280;28372;56.832;60.658;2022-11-15T05:39:28;95830.78;;;-1.20;100.00
42727;BME280;28372;56.832;60.658;2022-11-15T05:42:15;95834.88;;;-1.23;100.00
42727;BME280;28372;56.832;60.658;2022-11-15T05:45:03;95837.69;;;-1.15;100.00
42727;BME280;28372;56.832;60.658;2022-11-15T05:47:51;95839.25;;;-1.14;100.00
42727;BME280;28372;56.832;60.658;2022-11-15T05:50:40;95846.78;;;-1.00;100.00
42727;BME280;28372;56.832;60.658;2022-11-15T05:53:27;95846.78;;;-1.00;100.00
42727;BME280;28372;56.832;60.658;2022-11-15T05:56:14;95846.66;;;-1.04;100.00
42727;BME280;28372;56.832;60.658;2022-11-15T05:59:00;95850.63;;;-0.98;100.00
42727;BME280;28372;56.832;60.658;2022-11-15T06:01:46;95852.50;;;-0.98;100.00
42727;BME280;28372;56.832;60.658;2022-11-15T06:04:33;95857.78;;;-0.98;100.00
42727;BME280;28372;56.832;60.658;2022-11-15T06:07:19;95862.59;;;-1.04;100.00
42727;BME280;28372;56.832;60.658;2022-11-15T06:10:06;95865.88;;;-1.11;100.00
42727;BME280;28372;56.832;60.658;2022-11-15T06:13:03;95878.44;;;-1.08;100.00
42727;BME280;28372;56.832;60.658;2022-11-15T06:15:49;95874.75;;;-1.19;100.00
42727;BME280;28372;56.832;60.658;2022-11-15T06:18:36;95876.97;;;-1.21;100.00
42727;BME280;28372;56.832;60.658;2022-11-15T06:21:22;95873.81;;;-1.27;100.00
42727;BME280;28372;56.832;60.658;2022-11-15T06:24:31;95871.66;;;-1.21;100.00
42727;BME280;28372;56.832;60.658;2022-11-15T06:27:20;95885.72;;;-1.21;100.00
42727;BME280;28372;56.832;60.658;2022-11-15T06:30:13;95883.66;;;-1.27;100.00
42727;BME280;28372;56.832;60.658;2022-11-15T06:33:13;95890.91;;;-1.24;100.00
42727;BME280;28372;56.832;60.658;2022-11-15T06:36:07;95891.16;;;-1.29;100.00
42727;BME280;28372;56.832;60.658;2022-11-15T06:39:02;95880.13;;;-1.31;100.00
42727;BME280;28372;56.832;60.658;2022-11-15T06:41:48;95890.16;;;-1.25;100.00
42727;BME280;28372;56.832;60.658;2022-11-15T06:44:40;95891.88;;;-1.16;100.00
42727;BME280;28372;56.832;60.658;2022-11-15T06:47:28;95901.72;;;-1.01;100.00
42727;BME280;28372;56.832;60.658;2022-11-15T06:50:14;95893.59;;;-0.92;100.00
42727;BME280;28372;56.832;60.658;2022-11-15T06:53:21;95900.00;;;-0.77;100.00
42727;BME280;28372;56.832;60.658;2022-11-15T06:56:09;95899.56;;;-0.79;100.00
42727;BME280;28372;56.832;60.658;2022-11-15T06:58:55;95896.66;;;-0.74;100.00
42727;BME280;28372;56.832;60.658;2022-11-15T07:01:42;95897.94;;;-0.68;100.00
42727;BME280;28372;56.832;60.658;2022-11-15T07:04:28;95903.00;;;-0.63;100.00
42727;BME280;28372;56.832;60.658;2022-11-15T07:07:14;95893.91;;;-0.62;100.00
42727;BME280;28372;56.832;60.658;2022-11-15T07:10:00;95898.09;;;-0.61;100.00
42727;BME280;28372;56.832;60.658;2022-11-15T07:12:49;95898.94;;;-0.57;100.00
42727;BME280;28372;56.832;60.658;2022-11-15T07:15:34;95900.75;;;-0.61;100.00
42727;BME280;28372;56.832;60.658;2022-11-15T07:18:20;95902.38;;;-0.56;100.00
42727;BME280;28372;56.832;60.658;2022-11-15T07:21:08;95901.84;;;-0.46;100.00
42727;BME280;28372;56.832;60.658;2022-11-15T07:23:55;95906.22;;;-0.38;100.00
42727;BME280;28372;56.832;60.658;2022-11-15T07:26:41;95900.69;;;-0.29;100.00
42727;BME280;28372;56.832;60.658;2022-11-15T07:29:27;95909.66;;;-0.18;100.00
42727;BME280;28372;56.832;60.658;2022-11-15T07:32:13;95920.44;;;-0.10;100.00
42727;BME280;28372;56.832;60.658;2022-11-15T07:34:59;95907.25;;;-0.07;100.00
42727;BME280;28372;56.832;60.658;2022-11-15T07:37:56;95915.41;;;0.04;100.00
42727;BME280;28372;56.832;60.658;2022-11-15T07:40:45;95907.25;;;-0.07;100.00
42727;BME280;28372;56.832;60.658;2022-11-15T07:43:32;95917.75;;;0.06;100.00
42727;BME280;28372;56.832;60.658;2022-11-15T07:46:19;95921.66;;;0.12;100.00
42727;BME280;28372;56.832;60.658;2022-11-15T07:49:05;95921.31;;;0.13;100.00
42727;BME280;28372;56.832;60.658;2022-11-15T07:51:51;95916.13;;;0.21;100.00
42727;BME280;28372;56.832;60.658;2022-11-15T07:54:37;95924.13;;;0.21;100.00
42727;BME280;28372;56.832;60.658;2022-11-15T07:57:23;95930.22;;;0.21;100.00
42727;BME280;28372;56.832;60.658;2022-11-15T08:00:10;95923.63;;;0.15;100.00
42727;BME280;28372;56.832;60.658;2022-11-15T08:03:08;95933.16;;;0.16;100.00
42727;BME280;28372;56.832;60.658;2022-11-15T08:05:54;95936.06;;;0.11;100.00
42727;BME280;28372;56.832;60.658;2022-11-15T08:08:40;95946.28;;;0.09;100.00
42727;BME280;28372;56.832;60.658;2022-11-15T08:11:33;95934.59;;;0.13;100.00
42727;BME280;28372;56.832;60.658;2022-11-15T08:14:47;95929.16;;;0.06;100.00
42727;BME280;28372;56.832;60.658;2022-11-15T08:18:01;95939.50;;;0.11;100.00
42727;BME280;28372;56.832;60.658;2022-11-15T08:21:34;95923.44;;;-0.12;100.00
42727;BME280;28372;56.832;60.658;2022-11-15T08:25:07;95921.66;;;-0.08;100.00
42727;BME280;28372;56.832;60.658;2022-11-15T08:28:58;95947.00;;;0.06;100.00
42727;BME280;28372;56.832;60.658;2022-11-15T08:31:44;95955.78;;;0.10;100.00
42727;BME280;28372;56.832;60.658;2022-11-15T08:34:30;95954.25;;;0.09;100.00
42727;BME280;28372;56.832;60.658;2022-11-15T08:37:16;95975.03;;;0.03;100.00
42727;BME280;28372;56.832;60.658;2022-11-15T08:40:03;95974.69;;;0.05;100.00
42727;BME280;28372;56.832;60.658;2022-11-15T08:42:49;95972.22;;;-0.04;100.00
42727;BME280;28372;56.832;60.658;2022-11-15T08:45:35;95978.03;;;0.02;100.00
42727;BME280;28372;56.832;60.658;2022-11-15T08:48:21;95973.69;;;-0.07;100.00
42727;BME280;28372;56.832;60.658;2022-11-15T08:51:07;95977.84;;;-0.06;100.00
42727;BME280;28372;56.832;60.658;2022-11-15T08:53:53;95980.59;;;-0.02;100.00
42727;BME280;28372;56.832;60.658;2022-11-15T08:56:39;95991.25;;;-0.02;100.00
42727;BME280;28372;56.832;60.658;2022-11-15T08:59:44;95993.63;;;0.03;100.00
42727;BME280;28372;56.832;60.658;2022-11-15T09:02:51;96000.81;;;0.03;100.00
42727;BME280;28372;56.832;60.658;2022-11-15T09:05:37;96001.69;;;0.07;100.00
42727;BME280;28372;56.832;60.658;2022-11-15T09:08:24;95998.75;;;0.12;100.00
42727;BME280;28372;56.832;60.658;2022-11-15T09:11:30;96003.31;;;0.11;100.00
42727;BME280;28372;56.832;60.658;2022-11-15T09:14:16;96010.78;;;0.06;100.00
42727;BME280;28372;56.832;60.658;2022-11-15T09:17:02;96013.44;;;0.06;100.00
42727;BME280;28372;56.832;60.658;2022-11-15T09:19:48;96014.13;;;0.03;100.00
42727;BME280;28372;56.832;60.658;2022-11-15T09:22:35;96018.75;;;0.06;100.00
42727;BME280;28372;56.832;60.658;2022-11-15T09:25:22;96015.31;;;0.05;100.00
42727;BME280;28372;56.832;60.658;2022-11-15T09:28:08;96024.56;;;0.11;100.00
42727;BME280;28372;56.832;60.658;2022-11-15T09:31:02;96022.41;;;0.17;100.00
42727;BME280;28372;56.832;60.658;2022-11-15T09:33:49;96021.91;;;0.11;100.00
42727;BME280;28372;56.832;60.658;2022-11-15T09:36:35;96031.34;;;0.09;100.00
42727;BME280;28372;56.832;60.658;2022-11-15T09:39:21;96031.75;;;0.11;100.00
42727;BME280;28372;56.832;60.658;2022-11-15T09:45:31;96039.75;;;0.11;100.00
42727;BME280;28372;56.832;60.658;2022-11-15T09:48:42;96039.59;;;0.04;100.00
42727;BME280;28372;56.832;60.658;2022-11-15T09:51:40;96050.91;;;0.01;100.00
42727;BME280;28372;56.832;60.658;2022-11-15T09:54:35;96056.22;;;0.01;100.00
42727;BME280;28372;56.832;60.658;2022-11-15T09:57:45;96063.75;;;-0.02;100.00
42727;BME280;28372;56.832;60.658;2022-11-15T10:00:24;96065.16;;;-0.08;100.00
42727;BME280;28372;56.832;60.658;2022-11-15T10:05:46;96063.78;;;-0.18;100.00
42727;BME280;28372;56.832;60.658;2022-11-15T10:10:58;96071.06;;;-0.14;100.00
42727;BME280;28372;56.832;60.658;2022-11-15T10:13:47;96082.13;;;-0.12;100.00
42727;BME280;28372;56.832;60.658;2022-11-15T10:18:56;96078.63;;;-0.16;100.00
42727;BME280;28372;56.832;60.658;2022-11-15T10:21:40;96078.34;;;-0.11;100.00
42727;BME280;28372;56.832;60.658;2022-11-15T10:24:20;96079.81;;;-0.14;100.00
42727;BME280;28372;56.832;60.658;2022-11-15T10:26:50;96068.75;;;-0.32;100.00
42727;BME280;28372;56.832;60.658;2022-11-15T10:29:23;96083.75;;;-0.24;100.00
42727;BME280;28372;56.832;60.658;2022-11-15T10:31:53;96079.72;;;-0.33;100.00
42727;BME280;28372;56.832;60.658;2022-11-15T10:34:23;96076.28;;;-0.34;100.00
42727;BME280;28372;56.832;60.658;2022-11-15T10:36:55;96084.25;;;-0.34;100.00
42727;BME280;28372;56.832;60.658;2022-11-15T10:39:23;96087.25;;;-0.36;100.00
42727;BME280;28372;56.832;60.658;2022-11-15T10:41:51;96082.19;;;-0.41;100.00
42727;BME280;28372;56.832;60.658;2022-11-15T10:44:28;96093.88;;;-0.29;100.00
42727;BME280;28372;56.832;60.658;2022-11-15T10:49:26;96087.50;;;-0.41;100.00
42727;BME280;28372;56.832;60.658;2022-11-15T10:52:25;96099.50;;;-0.31;100.00
42727;BME280;28372;56.832;60.658;2022-11-15T10:55:05;96103.97;;;-0.35;100.00
42727;BME280;28372;56.832;60.658;2022-11-15T10:57:54;96104.63;;;-0.38;100.00
42727;BME280;28372;56.832;60.658;2022-11-15T11:02:57;96109.00;;;-0.46;100.00
42727;BME280;28372;56.832;60.658;2022-11-15T11:05:34;96106.69;;;-0.47;100.00
42727;BME280;28372;56.832;60.658;2022-11-15T11:11:01;96123.72;;;-0.48;100.00
42727;BME280;28372;56.832;60.658;2022-11-15T11:16:32;96122.97;;;-0.49;100.00
42727;BME280;28372;56.832;60.658;2022-11-15T11:19:36;96121.59;;;-0.59;100.00
42727;BME280;28372;56.832;60.658;2022-11-15T11:33:17;96123.41;;;-0.75;100.00
42727;BME280;28372;56.832;60.658;2022-11-15T11:35:59;96126.50;;;-0.73;100.00
42727;BME280;28372;56.832;60.658;2022-11-15T11:44:37;96139.53;;;-0.68;100.00
42727;BME280;28372;56.832;60.658;2022-11-15T11:47:57;96139.53;;;-0.68;100.00
42727;BME280;28372;56.832;60.658;2022-11-15T11:50:28;96137.03;;;-0.77;100.00
42727;BME280;28372;56.832;60.658;2022-11-15T11:53:12;96143.56;;;-0.74;100.00
42727;BME280;28372;56.832;60.658;2022-11-15T11:55:45;96137.03;;;-0.77;100.00
42727;BME280;28372;56.832;60.658;2022-11-15T11:58:34;96147.38;;;-0.72;100.00
42727;BME280;28372;56.832;60.658;2022-11-15T12:01:20;96151.50;;;-0.74;100.00
42727;BME280;28372;56.832;60.658;2022-11-15T12:03:55;96157.47;;;-0.77;100.00
42727;BME280;28372;56.832;60.658;2022-11-15T12:09:32;96167.44;;;-0.74;100.00
42727;BME280;28372;56.832;60.658;2022-11-15T12:15:23;96170.53;;;-0.72;100.00
42727;BME280;28372;56.832;60.658;2022-11-15T12:17:52;96160.91;;;-0.77;100.00
42727;BME280;28372;56.832;60.658;2022-11-15T12:20:32;96164.69;;;-0.78;100.00
42727;BME280;28372;56.832;60.658;2022-11-15T12:23:19;96165.97;;;-0.72;100.00
42727;BME280;28372;56.832;60.658;2022-11-15T12:26:02;96171.19;;;-0.75;100.00
42727;BME280;28372;56.832;60.658;2022-11-15T12:29:01;96178.63;;;-0.81;100.00
42727;BME280;28372;56.832;60.658;2022-11-15T12:36:44;96170.72;;;-1.06;100.00
42727;BME280;28372;56.832;60.658;2022-11-15T12:39:14;96181.78;;;-1.04;100.00
42727;BME280;28372;56.832;60.658;2022-11-15T12:47:02;96187.72;;;-1.07;100.00
42727;BME280;28372;56.832;60.658;2022-11-15T12:59:55;96200.91;;;-1.10;100.00
42727;BME280;28372;56.832;60.658;2022-11-15T13:02:37;96200.72;;;-1.17;100.00
42727;BME280;28372;56.832;60.658;2022-11-15T13:18:18;96216.16;;;-1.19;100.00
42727;BME280;28372;56.832;60.658;2022-11-15T13:20:46;96225.13;;;-1.24;100.00
42727;BME280;28372;56.832;60.658;2022-11-15T13:23:15;96221.25;;;-1.27;100.00
42727;BME280;28372;56.832;60.658;2022-11-15T13:28:42;96226.47;;;-1.30;100.00
42727;BME280;28372;56.832;60.658;2022-11-15T13:33:42;96231.09;;;-1.40;100.00
42727;BME280;28372;56.832;60.658;2022-11-15T13:39:06;96230.44;;;-1.36;100.00
42727;BME280;28372;56.832;60.658;2022-11-15T13:41:50;96226.69;;;-1.35;100.00
42727;BME280;28372;56.832;60.658;2022-11-15T13:44:23;96228.03;;;-1.42;100.00
42727;BME280;28372;56.832;60.658;2022-11-15T13:47:12;96232.66;;;-1.39;100.00
42727;BME280;28372;56.832;60.658;2022-11-15T13:49:40;96233.19;;;-1.45;100.00
42727;BME280;28372;56.832;60.658;2022-11-15T13:52:12;96234.84;;;-1.41;100.00
42727;BME280;28372;56.832;60.658;2022-11-15T13:54:56;96225.03;;;-1.40;100.00
42727;BME280;28372;56.832;60.658;2022-11-15T13:57:48;96241.84;;;-1.36;100.00
42727;BME280;28372;56.832;60.658;2022-11-15T14:02:56;96232.19;;;-1.41;100.00
42727;BME280;28372;56.832;60.658;2022-11-15T14:05:24;96230.44;;;-1.49;100.00
42727;BME280;28372;56.832;60.658;2022-11-15T14:08:29;96233.75;;;-1.40;100.00
42727;BME280;28372;56.832;60.658;2022-11-15T14:22:07;96251.66;;;-1.36;100.00
42727;BME280;28372;56.832;60.658;2022-11-15T14:24:36;96258.72;;;-1.41;100.00
42727;BME280;28372;56.832;60.658;2022-11-15T14:27:25;96257.63;;;-1.40;100.00
42727;BME280;28372;56.832;60.658;2022-11-15T14:29:53;96253.75;;;-1.42;100.00
42727;BME280;28372;56.832;60.658;2022-11-15T14:32:23;96265.56;;;-1.40;100.00
42727;BME280;28372;56.832;60.658;2022-11-15T14:35:00;96253.75;;;-1.42;100.00
42727;BME280;28372;56.832;60.658;2022-11-15T14:37:31;96262.38;;;-1.45;100.00
42727;BME280;28372;56.832;60.658;2022-11-15T14:40:04;96260.47;;;-1.45;100.00
42727;BME280;28372;56.832;60.658;2022-11-15T14:42:32;96261.81;;;-1.51;100.00
42727;BME280;28372;56.832;60.658;2022-11-15T14:44:59;96267.44;;;-1.52;100.00
42727;BME280;28372;56.832;60.658;2022-11-15T14:47:29;96268.13;;;-1.56;100.00
42727;BME280;28372;56.832;60.658;2022-11-15T14:49:56;96257.50;;;-1.56;100.00
42727;BME280;28372;56.832;60.658;2022-11-15T14:52:28;96262.56;;;-1.50;100.00
42727;BME280;28372;56.832;60.658;2022-11-15T14:54:59;96269.63;;;-1.55;100.00
42727;BME280;28372;56.832;60.658;2022-11-15T14:57:29;96269.22;;;-1.57;100.00
42727;BME280;28372;56.832;60.658;2022-11-15T14:59:57;96276.41;;;-1.57;100.00
42727;BME280;28372;56.832;60.658;2022-11-15T15:02:38;96272.75;;;-1.52;100.00
42727;BME280;28372;56.832;60.658;2022-11-15T15:08:00;96276.16;;;-1.52;100.00
42727;BME280;28372;56.832;60.658;2022-11-15T15:10:32;96287.88;;;-1.53;100.00
42727;BME280;28372;56.832;60.658;2022-11-15T15:13:22;96281.69;;;-1.45;100.00
42727;BME280;28372;56.832;60.658;2022-11-15T15:15:51;96282.81;;;-1.46;100.00
42727;BME280;28372;56.832;60.658;2022-11-15T15:18:19;96284.34;;;-1.45;100.00
42727;BME280;28372;56.832;60.658;2022-11-15T15:20:56;96286.22;;;-1.45;100.00
42727;BME280;28372;56.832;60.658;2022-11-15T15:23:25;96288.75;;;-1.49;100.00
42727;BME280;28372;56.832;60.658;2022-11-15T15:25:56;96298.16;;;-1.51;100.00
42727;BME280;28372;56.832;60.658;2022-11-15T15:28:25;96302.56;;;-1.56;100.00
42727;BME280;28372;56.832;60.658;2022-11-15T15:30:59;96300.69;;;-1.55;100.00
42727;BME280;28372;56.832;60.658;2022-11-15T15:33:27;96301.03;;;-1.57;100.00
42727;BME280;28372;56.832;60.658;2022-11-15T15:35:54;96301.78;;;-1.56;100.00
42727;BME280;28372;56.832;60.658;2022-11-15T15:38:22;96306.53;;;-1.62;100.00
42727;BME280;28372;56.832;60.658;2022-11-15T15:40:50;96315.13;;;-1.65;100.00
42727;BME280;28372;56.832;60.658;2022-11-15T15:43:18;96314.09;;;-1.73;100.00
42727;BME280;28372;56.832;60.658;2022-11-15T15:45:45;96312.13;;;-1.76;100.00
42727;BME280;28372;56.832;60.658;2022-11-15T15:48:15;96314.91;;;-1.72;100.00
42727;BME280;28372;56.832;60.658;2022-11-15T15:50:44;96313.25;;;-1.77;100.00
42727;BME280;28372;56.832;60.658;2022-11-15T15:53:12;96321.09;;;-1.68;100.00
42727;BME280;28372;56.832;60.658;2022-11-15T15:55:40;96312.34;;;-1.68;100.00
42727;BME280;28372;56.832;60.658;2022-11-15T15:58:07;96320.00;;;-1.67;100.00
42727;BME280;28372;56.832;60.658;2022-11-15T16:00:38;96315.81;;;-1.68;100.00
42727;BME280;28372;56.832;60.658;2022-11-15T16:03:06;96316.69;;;-1.64;100.00
42727;BME280;28372;56.832;60.658;2022-11-15T16:05:33;96321.78;;;-1.59;100.00
42727;BME280;28372;56.832;60.658;2022-11-15T16:08:01;96329.84;;;-1.55;100.00
42727;BME280;28372;56.832;60.658;2022-11-15T16:10:31;96302.97;;;-1.66;100.00
42727;BME280;28372;56.832;60.658;2022-11-15T16:12:58;96326.44;;;-1.56;100.00
42727;BME280;28372;56.832;60.658;2022-11-15T16:15:27;96322.22;;;-1.57;100.00
42727;BME280;28372;56.832;60.658;2022-11-15T16:17:58;96330.94;;;-1.56;100.00
42727;BME280;28372;56.832;60.658;2022-11-15T16:20:30;96342.03;;;-1.54;100.00
42727;BME280;28372;56.832;60.658;2022-11-15T16:23:02;96321.00;;;-1.59;100.00
42727;BME280;28372;56.832;60.658;2022-11-15T16:30:47;96313.25;;;-1.77;100.00
42727;BME280;28372;56.832;60.658;2022-11-15T16:33:25;96348.09;;;-1.53;100.00